Time;durP1;ratioP1;P1;durP2;ratioP2;P2;SDS_P1;SDS_P2;PMS_P1;PMS_P2;Temp;Humidity;BMP_temperature;BMP_pressure;BME280_temperature;BME280_humidity;BME280_pressure;Samples;Min_cycle;Max_cycle;Signal;HPM_P1;HPM_P2
2021/12/16 00:09:37;;;;;;;497.25;255.18;;;3.80;99.90;;;;;;5076329;28;20044;-78
2021/12/16 00:31:31;;;;;;;581.53;261.65;;;3.80;1.00;;;;;;5071834;28;19916;-78
2021/12/16 00:34:02;;;;;;;499.20;236.30;;;3.80;1.00;;;;;;5077062;28;20044;-77
2021/12/16 00:36:35;;;;;;;504.85;228.13;;;3.80;1.00;;;;;;5075082;28;20059;-77
2021/12/16 00:39:07;;;;;;;480.60;229.10;;;3.80;1.00;;;;;;5077191;28;20051;-77
2021/12/16 00:41:37;;;;;;;477.05;224.80;;;3.80;1.00;;;;;;5075113;28;20135;-77
2021/12/16 00:44:12;;;;;;;732.08;275.70;;;3.70;99.90;;;;;;5076708;28;20479;-76
2021/12/16 00:49:39;;;;;;;697.85;275.08;;;3.70;1.00;;;;;;5071779;28;20411;-79
2021/12/16 00:55:08;;;;;;;460.80;224.93;;;3.70;99.90;;;;;;5074586;28;20135;-78
2021/12/16 00:57:38;;;;;;;469.73;216.63;;;3.70;99.90;;;;;;5074572;28;20418;-77
2021/12/16 01:00:10;;;;;;;486.65;221.30;;;3.80;1.00;;;;;;5075154;28;20078;-77
2021/12/16 01:05:50;;;;;;;701.70;271.13;;;4.00;99.90;;;;;;5070851;28;20045;-78
2021/12/16 01:34:16;;;;;;;526.33;225.75;;;3.70;1.00;;;;;;4994576;28;20058;-78
2021/12/16 01:42:28;;;;;;;460.60;215.07;;;3.80;1.00;;;;;;5026570;28;20605;-79
2021/12/16 01:48:33;;;;;;;525.42;222.50;;;3.80;1.00;;;;;;5079561;28;20425;-80
2021/12/16 01:50:59;;;;;;;477.67;207.90;;;3.80;99.90;;;;;;5078624;28;20064;-80
2021/12/16 01:53:52;;;;;;;543.63;225.20;;;3.80;99.90;;;;;;5077707;28;20049;-81
2021/12/16 01:56:34;;;;;;;525.33;206.80;;;3.70;99.90;;;;;;5075493;28;20127;-78
2021/12/16 01:59:05;;;;;;;454.63;193.43;;;3.80;99.90;;;;;;5075129;28;20511;-79
2021/12/16 02:01:34;;;;;;;494.60;200.88;;;3.70;1.00;;;;;;5074616;28;20566;-78
2021/12/16 02:04:13;;;;;;;447.02;200.77;;;3.70;99.90;;;;;;5073694;28;20459;-78
2021/12/16 02:06:57;;;;;;;432.88;195.63;;;3.70;1.00;;;;;;5075602;28;20487;-78
2021/12/16 02:09:32;;;;;;;468.27;198.43;;;3.80;1.00;;;;;;5075576;28;20036;-78
2021/12/16 02:12:08;;;;;;;483.10;206.05;;;3.80;1.00;;;;;;5075128;28;20052;-78
2021/12/16 02:28:49;;;;;;;516.45;222.35;;;3.90;1.00;;;;;;5061633;28;20045;-78
2021/12/16 02:31:44;;;;;;;474.98;210.90;;;3.70;1.00;;;;;;5065520;28;20070;-78
2021/12/16 02:34:30;;;;;;;679.63;254.55;;;3.70;1.00;;;;;;5073202;28;20045;-78
2021/12/16 02:37:02;;;;;;;500.02;214.30;;;3.70;99.90;;;;;;5074210;28;20504;-78
2021/12/16 02:39:33;;;;;;;494.80;203.65;;;3.70;99.90;;;;;;5073573;28;20415;-78
2021/12/16 02:42:12;;;;;;;464.83;202.38;;;3.70;99.90;;;;;;5073514;28;20135;-78
2021/12/16 02:48:27;;;;;;;540.50;215.85;;;3.70;99.90;;;;;;5072720;28;20075;-78
2021/12/16 02:50:13;;;;;;;549.47;208.75;;;3.70;1.00;;;;;;5054434;28;20105;-78
2021/12/16 02:52:42;;;;;;;458.65;191.25;;;3.70;1.00;;;;;;5036540;28;20136;-78
2021/12/16 02:55:12;;;;;;;468.83;187.40;;;3.70;1.00;;;;;;5054417;28;20041;-78
2021/12/16 02:57:47;;;;;;;484.52;188.27;;;3.60;99.90;;;;;;5036454;28;20057;-76
2021/12/16 03:00:16;;;;;;;487.50;191.88;;;3.60;1.00;;;;;;5056749;28;20127;-80
2021/12/16 03:02:48;;;;;;;510.55;192.57;;;3.60;1.00;;;;;;5054817;28;20053;-76
2021/12/16 03:05:18;;;;;;;500.10;188.95;;;3.60;1.00;;;;;;5056249;28;20049;-80
2021/12/16 03:07:47;;;;;;;528.15;192.85;;;3.60;1.00;;;;;;5056728;28;20116;-78
2021/12/16 03:10:51;;;;;;;673.58;210.20;;;3.60;99.90;;;;;;5054945;28;20472;-81
2021/12/16 03:13:25;;;;;;;598.67;201.18;;;3.60;1.00;;;;;;5055516;28;20090;-80
2021/12/16 03:16:05;;;;;;;458.13;186.55;;;3.60;1.00;;;;;;5080395;28;20051;-78
2021/12/16 03:18:43;;;;;;;438.40;181.30;;;3.60;1.00;;;;;;5080461;28;20029;-78
2021/12/16 03:21:18;;;;;;;413.90;173.43;;;3.60;1.00;;;;;;5063266;28;20041;-81
2021/12/16 03:30:02;;;;;;;475.35;184.90;;;3.70;99.90;;;;;;4994950;28;20042;-82
2021/12/16 03:33:10;;;;;;;441.23;182.48;;;3.60;99.90;;;;;;5063340;28;20076;-81
2021/12/16 03:35:51;;;;;;;571.25;207.70;;;3.60;1.00;;;;;;5055419;28;20079;-81
2021/12/16 03:38:19;;;;;;;393.83;167.20;;;3.70;1.00;;;;;;5057111;28;20055;-81
2021/12/16 03:40:48;;;;;;;644.75;202.93;;;3.70;99.90;;;;;;5076413;28;20047;-82
2021/12/16 03:43:18;;;;;;;539.90;189.43;;;3.70;99.90;;;;;;5075936;28;20036;-79
2021/12/16 03:48:44;;;;;;;641.92;215.48;;;3.60;1.00;;;;;;5052604;28;20049;-81
2021/12/16 03:51:15;;;;;;;586.38;204.80;;;3.60;99.90;;;;;;5072847;22;20056;-78
2021/12/16 03:53:44;;;;;;;534.88;196.43;;;3.60;1.00;;;;;;5030537;28;20045;-80
2021/12/16 03:56:20;;;;;;;408.63;174.80;;;3.50;1.00;;;;;;5055116;28;20068;-80
2021/12/16 03:59:05;;;;;;;553.90;192.98;;;3.50;1.00;;;;;;5044290;28;20103;-79
2021/12/16 04:01:43;;;;;;;389.40;156.82;;;3.60;99.90;;;;;;5035934;28;20041;-79
2021/12/16 04:04:11;;;;;;;371.65;148.60;;;3.70;99.90;;;;;;5035624;28;20046;-78
2021/12/16 04:06:39;;;;;;;356.45;148.13;;;3.70;1.00;;;;;;5036302;28;20128;-79
2021/12/16 04:09:17;;;;;;;350.80;145.70;;;3.70;99.90;;;;;;5037849;28;20535;-79
2021/12/16 04:12:09;;;;;;;375.77;147.07;;;3.80;99.90;;;;;;5024819;28;20046;-79
2021/12/16 04:14:40;;;;;;;301.55;129.50;;;3.80;1.00;;;;;;5036598;28;20053;-80
2021/12/16 04:17:09;;;;;;;377.48;128.70;;;3.70;99.90;;;;;;5021598;28;20045;-78
2021/12/16 04:19:48;;;;;;;331.88;131.30;;;3.70;99.90;;;;;;5046774;28;20054;-79
2021/12/16 04:22:18;;;;;;;329.45;133.68;;;3.70;90.80;;;;;;5046288;28;20054;-78
2021/12/16 04:24:52;;;;;;;425.75;144.95;;;3.60;99.90;;;;;;5035417;28;20045;-78
2021/12/16 04:27:21;;;;;;;365.60;143.68;;;3.60;99.90;;;;;;5033934;28;20046;-78
2021/12/16 04:29:49;;;;;;;365.65;140.18;;;3.60;1.00;;;;;;5025869;28;20145;-78
2021/12/16 04:32:18;;;;;;;314.95;133.07;;;3.60;99.90;;;;;;5027531;28;20053;-80
2021/12/16 04:34:47;;;;;;;328.98;135.60;;;3.60;1.00;;;;;;5027645;28;20041;-80
2021/12/16 04:37:15;;;;;;;313.38;124.15;;;3.60;1.00;;;;;;5035744;28;20078;-78
2021/12/16 04:39:47;;;;;;;284.20;119.00;;;3.70;99.90;;;;;;5035605;28;20516;-77
2021/12/16 04:42:19;;;;;;;279.40;117.97;;;3.60;99.90;;;;;;5035018;28;20059;-80
2021/12/16 04:44:52;;;;;;;296.55;126.25;;;3.70;99.90;;;;;;5030650;28;20049;-79
2021/12/16 04:47:19;;;;;;;317.38;131.25;;;3.70;99.90;;;;;;5048857;28;20128;-79
2021/12/16 04:49:48;;;;;;;355.27;143.07;;;3.70;99.90;;;;;;5035121;28;20045;-80
2021/12/16 04:52:19;;;;;;;377.88;150.93;;;3.70;99.90;;;;;;5035578;28;20557;-79
2021/12/16 04:54:47;;;;;;;384.00;156.80;;;3.70;1.00;;;;;;5035128;28;20050;-79
2021/12/16 04:57:16;;;;;;;370.20;151.05;;;3.70;1.00;;;;;;5038399;28;20052;-80
2021/12/16 04:59:47;;;;;;;438.85;159.98;;;3.70;1.00;;;;;;5054936;28;20072;-78
2021/12/16 05:02:21;;;;;;;348.77;144.65;;;3.80;1.00;;;;;;5042641;28;20555;-77
2021/12/16 05:05:08;;;;;;;393.70;150.98;;;3.80;1.00;;;;;;5030317;28;20407;-78
2021/12/16 05:07:35;;;;;;;384.77;153.75;;;3.80;1.00;;;;;;5032793;28;20068;-78
2021/12/16 05:10:25;;;;;;;370.92;153.32;;;3.90;1.00;;;;;;5035530;28;20063;-80
2021/12/16 05:13:18;;;;;;;430.27;167.75;;;3.90;1.00;;;;;;5033263;28;20477;-79
2021/12/16 05:15:47;;;;;;;387.55;149.70;;;3.90;1.00;;;;;;5033749;28;20056;-78
2021/12/16 05:18:22;;;;;;;430.83;163.38;;;3.90;99.90;;;;;;5030889;28;20076;-80
2021/12/16 05:20:55;;;;;;;448.80;166.38;;;3.80;1.00;;;;;;5029101;28;20381;-78
2021/12/16 05:26:19;;;;;;;484.45;163.27;;;3.70;1.00;;;;;;5018075;28;20049;-79
2021/12/16 05:29:09;;;;;;;367.40;151.05;;;3.70;16.80;;;;;;5019425;28;20042;-79
2021/12/16 05:31:39;;;;;;;496.02;172.00;;;3.70;99.90;;;;;;5034288;28;20047;-77
2021/12/16 05:34:10;;;;;;;450.42;169.32;;;3.80;1.00;;;;;;5048697;28;20048;-79
2021/12/16 05:36:40;;;;;;;538.65;191.23;;;3.80;1.00;;;;;;5054094;28;20522;-80
2021/12/16 05:39:09;;;;;;;404.48;159.40;;;3.70;1.00;;;;;;5049752;28;20052;-79
2021/12/16 05:41:46;;;;;;;415.30;160.23;;;3.70;1.00;;;;;;5036861;28;20049;-79
2021/12/16 05:44:14;;;;;;;481.52;169.35;;;3.70;1.00;;;;;;5056646;28;20048;-79
2021/12/16 05:46:43;;;;;;;554.08;188.02;;;3.70;1.00;;;;;;5038415;28;20049;-77
2021/12/16 05:49:14;;;;;;;821.58;213.02;;;3.60;1.00;;;;;;5038414;28;20105;-77
2021/12/16 05:51:50;;;;;;;396.45;152.32;;;3.50;1.00;;;;;;5044970;28;20076;-78
2021/12/16 05:54:20;;;;;;;422.55;157.73;;;3.50;1.00;;;;;;5022725;28;20487;-78
2021/12/16 05:56:52;;;;;;;422.75;156.23;;;3.50;99.90;;;;;;5008468;28;20123;-80
2021/12/16 05:59:22;;;;;;;376.30;151.88;;;3.60;1.00;;;;;;5012964;28;20045;-77
2021/12/16 06:01:52;;;;;;;356.45;148.02;;;3.60;99.90;;;;;;4999544;28;20050;-80
2021/12/16 06:04:27;;;;;;;389.05;159.98;;;3.70;99.90;;;;;;5003329;28;20053;-79
2021/12/16 06:06:58;;;;;;;531.05;213.43;;;3.70;1.00;;;;;;5016542;28;20042;-79
2021/12/16 06:09:26;;;;;;;612.80;244.60;;;3.70;1.00;;;;;;5019604;28;20050;-79
2021/12/16 06:11:54;;;;;;;482.27;192.85;;;3.80;1.00;;;;;;5006663;28;20498;-80
2021/12/16 06:14:27;;;;;;;424.20;167.32;;;3.80;1.00;;;;;;5036131;28;20046;-78
2021/12/16 06:22:51;;;;;;;323.70;143.70;;;3.90;99.90;;;;;;5006210;28;20050;-80
2021/12/16 06:28:08;;;;;;;302.55;141.50;;;3.90;1.00;;;;;;5008373;28;20536;-80
2021/12/16 06:30:39;;;;;;;332.63;148.35;;;3.90;1.00;;;;;;5012265;28;20099;-80
2021/12/16 06:33:10;;;;;;;342.77;149.93;;;4.00;1.00;;;;;;5027192;28;20511;-80
2021/12/16 06:35:39;;;;;;;384.15;164.25;;;4.00;99.90;;;;;;5003032;28;20136;-80
2021/12/16 06:38:10;;;;;;;330.92;152.52;;;4.10;99.90;;;;;;4996884;28;20050;-79
2021/12/16 06:41:07;;;;;;;410.52;184.63;;;4.10;99.90;;;;;;5002349;28;20043;-79
2021/12/16 06:44:06;;;;;;;361.10;171.82;;;4.10;1.00;;;;;;5019512;28;20469;-81
2021/12/16 06:46:37;;;;;;;356.50;165.13;;;4.10;99.90;;;;;;5000381;28;20117;-82
2021/12/16 06:49:06;;;;;;;357.27;164.68;;;4.10;99.90;;;;;;5021804;28;20053;-83
2021/12/16 06:51:42;;;;;;;356.20;163.25;;;4.10;99.90;;;;;;5031903;28;20103;-81
2021/12/16 06:54:15;;;;;;;481.75;222.38;;;4.20;99.90;;;;;;5059579;28;20030;-79
2021/12/16 06:56:50;;;;;;;467.20;212.43;;;4.20;99.90;;;;;;5053641;28;20068;-81
2021/12/16 06:59:23;;;;;;;450.90;203.57;;;4.20;99.90;;;;;;5058953;28;20045;-81
2021/12/16 07:02:05;;;;;;;414.35;195.02;;;4.20;3.40;;;;;;5056789;28;20298;-82
2021/12/16 07:04:33;;;;;;;425.35;202.80;;;4.20;1.00;;;;;;5036985;28;20045;-79
2021/12/16 07:07:03;;;;;;;422.83;202.57;;;4.20;1.00;;;;;;5036933;28;20037;-78
2021/12/16 07:09:30;;;;;;;473.58;225.13;;;4.10;1.00;;;;;;5051410;28;20056;-80
2021/12/16 07:11:59;;;;;;;514.53;244.23;;;4.10;56.60;;;;;;5061024;28;20120;-80
2021/12/16 07:14:36;;;;;;;448.40;210.38;;;4.10;99.90;;;;;;5040553;28;20403;-79
2021/12/16 07:17:07;;;;;;;377.50;175.95;;;4.00;99.90;;;;;;5038809;28;20452;-81
2021/12/16 07:19:35;;;;;;;333.40;155.30;;;4.10;1.00;;;;;;5052638;28;20049;-78
2021/12/16 07:22:06;;;;;;;341.33;164.23;;;4.10;28.80;;;;;;5060011;28;20049;-80
2021/12/16 07:24:34;;;;;;;348.65;158.07;;;4.10;1.00;;;;;;5058414;28;20136;-80
2021/12/16 07:27:02;;;;;;;390.48;189.88;;;4.20;1.00;;;;;;5059681;28;20044;-80
2021/12/16 07:29:29;;;;;;;400.23;190.32;;;4.20;1.00;;;;;;5031002;28;20669;-81
2021/12/16 07:31:59;;;;;;;349.60;164.02;;;4.20;1.00;;;;;;5049016;28;20049;-79
2021/12/16 07:34:27;;;;;;;322.42;148.35;;;4.30;99.90;;;;;;5036800;28;20061;-80
2021/12/16 07:36:55;;;;;;;297.17;143.57;;;4.30;99.90;;;;;;5020720;28;20042;-80
2021/12/16 07:39:29;;;;;;;311.83;148.80;;;4.30;99.90;;;;;;5032865;28;20084;-80
2021/12/16 07:41:57;;;;;;;310.05;150.98;;;4.40;99.90;;;;;;5040004;28;20590;-80
2021/12/16 07:44:25;;;;;;;328.92;159.25;;;4.50;6.80;;;;;;5038100;28;20061;-78
2021/12/16 07:46:55;;;;;;;308.35;152.23;;;4.60;99.90;;;;;;5039252;28;20136;-79
2021/12/16 07:49:25;;;;;;;269.25;135.23;;;4.70;73.90;;;;;;5038875;28;20057;-80
2021/12/16 07:51:53;;;;;;;279.63;138.45;;;4.80;1.00;;;;;;5041609;28;20416;-79
2021/12/16 07:54:24;;;;;;;306.48;156.70;;;4.90;1.00;;;;;;5041387;28;20049;-80
2021/12/16 07:56:55;;;;;;;284.65;139.45;;;5.00;99.90;;;;;;5043082;28;20055;-81
2021/12/16 07:59:22;;;;;;;289.15;147.00;;;5.00;99.90;;;;;;5041116;28;20049;-81
2021/12/16 08:01:50;;;;;;;283.85;143.93;;;5.10;99.90;;;;;;5052540;28;20141;-82
2021/12/16 08:04:20;;;;;;;349.75;186.70;;;5.10;99.90;;;;;;5061146;28;20045;-81
2021/12/16 08:06:50;;;;;;;311.15;164.30;;;5.10;74.90;;;;;;5070445;28;20075;-80
2021/12/16 08:09:18;;;;;;;299.48;153.70;;;5.10;23.90;;;;;;5068177;28;20041;-81
2021/12/16 08:11:49;;;;;;;285.00;150.63;;;5.10;1.00;;;;;;5042605;28;20132;-80
2021/12/16 08:14:18;;;;;;;296.83;156.68;;;5.10;71.70;;;;;;5039417;28;20053;-81
2021/12/16 08:16:46;;;;;;;280.23;148.25;;;5.10;63.70;;;;;;5039655;28;20037;-81
2021/12/16 08:19:14;;;;;;;262.02;140.57;;;5.20;92.80;;;;;;5039397;28;20162;-82
2021/12/16 08:21:41;;;;;;;257.35;136.23;;;5.40;7.70;;;;;;5041875;28;20041;-79
2021/12/16 08:24:16;;;;;;;235.07;122.43;;;5.50;1.00;;;;;;5044499;28;20041;-79
2021/12/16 08:26:44;;;;;;;259.17;130.57;;;5.70;1.00;;;;;;5058802;28;20118;-81
2021/12/16 08:29:13;;;;;;;254.98;135.68;;;5.70;1.00;;;;;;5055563;28;20046;-83
2021/12/16 08:31:40;;;;;;;252.77;133.80;;;5.70;1.00;;;;;;5048083;28;20039;-81
2021/12/16 08:34:08;;;;;;;258.80;133.57;;;5.80;1.00;;;;;;5050912;28;20086;-81
2021/12/16 08:36:36;;;;;;;325.92;182.73;;;5.90;1.00;;;;;;5045869;28;20044;-82
2021/12/16 08:39:07;;;;;;;244.52;131.32;;;6.00;1.00;;;;;;5035043;28;20038;-82
2021/12/16 08:41:38;;;;;;;222.10;114.72;;;6.10;1.00;;;;;;5037655;28;20052;-80
2021/12/16 08:44:06;;;;;;;230.70;120.20;;;6.00;99.90;;;;;;5035334;28;20053;-79
2021/12/16 08:46:38;;;;;;;226.43;119.47;;;6.00;99.90;;;;;;5039179;28;20046;-79
2021/12/16 08:49:06;;;;;;;229.13;116.53;;;6.00;99.90;;;;;;5037723;28;20047;-83
2021/12/16 08:51:37;;;;;;;233.25;117.32;;;6.00;99.90;;;;;;5045138;28;20049;-77
2021/12/16 08:54:05;;;;;;;225.07;115.88;;;6.00;1.00;;;;;;5069172;28;20057;-79
2021/12/16 08:56:33;;;;;;;227.00;118.45;;;6.00;1.00;;;;;;5052245;28;20044;-79
2021/12/16 08:59:01;;;;;;;238.55;126.80;;;6.10;1.00;;;;;;5051398;28;20041;-75
2021/12/16 09:01:32;;;;;;;267.60;134.15;;;6.10;1.00;;;;;;5055691;28;20041;-81
2021/12/16 09:04:01;;;;;;;255.27;136.10;;;6.20;99.90;;;;;;5037145;28;20049;-82
2021/12/16 09:06:29;;;;;;;243.52;127.32;;;6.20;99.90;;;;;;5022012;28;20128;-80
2021/12/16 09:08:57;;;;;;;239.57;119.82;;;6.30;99.90;;;;;;5037718;28;20117;-80
2021/12/16 09:11:28;;;;;;;214.25;108.63;;;6.30;99.90;;;;;;5038963;28;20041;-79
2021/12/16 09:13:58;;;;;;;165.30;86.43;;;6.20;99.90;;;;;;5038645;28;20053;-80
2021/12/16 09:16:29;;;;;;;166.88;86.95;;;6.20;1.00;;;;;;5035381;28;20052;-78
2021/12/16 09:18:56;;;;;;;164.65;82.53;;;6.20;1.00;;;;;;5032186;28;20087;-78
2021/12/16 09:21:28;;;;;;;122.40;61.90;;;6.10;99.90;;;;;;5035602;28;20447;-78
2021/12/16 09:23:56;;;;;;;119.07;62.05;;;6.10;1.00;;;;;;5035706;28;20041;-80
2021/12/16 09:26:25;;;;;;;118.90;62.85;;;6.20;1.00;;;;;;5034163;28;20045;-79
2021/12/16 09:28:53;;;;;;;166.65;86.20;;;6.10;1.00;;;;;;5035319;28;20368;-81
2021/12/16 09:31:22;;;;;;;161.77;81.00;;;6.20;1.00;;;;;;5035434;28;20052;-78
2021/12/16 09:33:53;;;;;;;145.95;74.35;;;6.50;99.90;;;;;;5034661;28;20049;-80
2021/12/16 09:36:23;;;;;;;160.10;83.57;;;6.50;99.90;;;;;;5036050;28;20118;-80
2021/12/16 09:38:52;;;;;;;179.02;93.18;;;6.50;99.90;;;;;;5036053;28;20044;-79
2021/12/16 09:41:21;;;;;;;192.35;102.22;;;6.70;99.90;;;;;;5037960;28;20037;-80
2021/12/16 09:43:50;;;;;;;156.45;83.50;;;6.80;99.90;;;;;;5038461;28;20460;-78
2021/12/16 09:46:22;;;;;;;163.82;84.97;;;7.00;99.90;;;;;;5038248;28;20068;-79
2021/12/16 09:48:50;;;;;;;159.10;85.88;;;7.00;99.10;;;;;;5038776;28;20124;-82
2021/12/16 09:51:22;;;;;;;161.93;86.43;;;7.00;47.80;;;;;;5068722;22;20056;-78
2021/12/16 09:53:52;;;;;;;187.13;94.63;;;7.00;60.00;;;;;;5068042;28;20049;-80
2021/12/16 09:56:22;;;;;;;261.90;135.60;;;7.10;49.20;;;;;;5058617;28;20053;-79
2021/12/16 09:58:52;;;;;;;292.02;148.93;;;7.20;28.50;;;;;;5057633;28;20076;-77
2021/12/16 10:01:23;;;;;;;294.63;152.68;;;7.30;1.00;;;;;;5060567;28;20068;-77
2021/12/16 10:03:53;;;;;;;265.63;138.65;;;7.30;1.00;;;;;;5070592;28;20044;-78
2021/12/16 10:06:21;;;;;;;261.25;135.55;;;7.20;1.00;;;;;;5064774;28;20049;-77
2021/12/16 10:08:49;;;;;;;258.48;133.32;;;7.40;1.00;;;;;;5065416;28;20041;-76
2021/12/16 10:11:18;;;;;;;245.13;127.53;;;7.40;1.00;;;;;;5060147;28;20488;-76
2021/12/16 10:13:59;;;;;;;245.48;126.88;;;7.50;1.00;;;;;;5060411;28;20053;-77
2021/12/16 10:19:13;;;;;;;231.55;120.00;;;7.70;1.00;;;;;;5062427;28;20045;-76
2021/12/16 10:21:42;;;;;;;242.80;119.13;;;7.70;1.00;;;;;;5064578;28;20083;-76
2021/12/16 10:24:22;;;;;;;229.75;113.63;;;7.60;1.00;;;;;;5064587;28;20075;-78
2021/12/16 10:29:47;;;;;;;199.50;97.05;;;7.50;1.00;;;;;;5168070;27;20390;-76
2021/12/16 10:32:35;;;;;;;189.48;94.53;;;7.10;1.00;;;;;;5140857;28;20051;-77
2021/12/16 10:35:07;;;;;;;186.23;93.90;;;7.00;1.00;;;;;;5133813;28;20044;-78
2021/12/16 10:37:37;;;;;;;186.55;92.68;;;7.10;1.00;;;;;;5126406;28;20087;-77
2021/12/16 10:40:26;;;;;;;181.52;90.65;;;7.30;1.00;;;;;;5123441;28;20147;-75
2021/12/16 10:42:55;;;;;;;176.27;86.13;;;7.30;1.00;;;;;;5118932;22;20381;-83
2021/12/16 10:45:29;;;;;;;161.07;84.93;;;7.40;1.00;;;;;;5114514;28;20056;-82
2021/12/16 10:48:23;;;;;;;169.88;88.38;;;7.30;1.00;;;;;;5118958;28;20050;-83
2021/12/16 10:51:11;;;;;;;145.70;72.32;;;7.20;1.00;;;;;;5119664;28;20047;-84
2021/12/16 10:54:15;;;;;;;161.75;75.65;;;7.10;1.00;;;;;;5118575;28;20047;-82
2021/12/16 10:56:55;;;;;;;196.65;87.47;;;7.00;1.00;;;;;;5118584;28;20047;-81
2021/12/16 10:59:27;;;;;;;196.55;88.93;;;6.90;1.00;;;;;;5118830;28;20068;-82
2021/12/16 11:02:03;;;;;;;189.88;90.97;;;6.80;1.00;;;;;;5120530;28;20047;-83
2021/12/16 11:04:45;;;;;;;207.30;92.68;;;6.80;11.80;;;;;;5131196;28;20036;-80
2021/12/16 11:07:20;;;;;;;199.32;89.70;;;6.80;14.70;;;;;;5123884;28;20097;-81
2021/12/16 11:09:55;;;;;;;255.80;107.80;;;6.80;1.00;;;;;;5113501;28;20044;-82
2021/12/16 11:12:41;;;;;;;249.88;110.63;;;6.80;7.50;;;;;;5114937;28;20048;-80
2021/12/16 11:15:27;;;;;;;273.17;114.50;;;6.80;18.80;;;;;;5117454;28;20506;-84
2021/12/16 11:17:59;;;;;;;269.52;113.70;;;6.90;37.90;;;;;;5118883;28;20548;-81
2021/12/16 11:20:37;;;;;;;274.23;112.28;;;6.90;8.90;;;;;;5116806;28;20072;-81
2021/12/16 11:23:09;;;;;;;269.45;109.75;;;6.90;1.00;;;;;;5117534;28;20036;-80
2021/12/16 11:25:38;;;;;;;257.98;109.40;;;6.80;1.00;;;;;;5116205;28;20071;-81
2021/12/16 11:28:11;;;;;;;293.25;116.78;;;6.70;51.20;;;;;;5116292;28;20036;-81
2021/12/16 11:30:43;;;;;;;266.92;109.65;;;6.80;38.90;;;;;;5118698;28;20044;-82
2021/12/16 11:33:29;;;;;;;266.40;108.93;;;6.90;40.40;;;;;;5118025;28;20095;-82
2021/12/16 11:36:01;;;;;;;280.10;107.32;;;7.00;1.00;;;;;;5114939;28;20450;-82
2021/12/16 11:38:33;;;;;;;278.52;109.88;;;6.90;1.00;;;;;;5118367;28;20040;-82
2021/12/16 11:41:23;;;;;;;258.90;106.85;;;6.80;27.60;;;;;;5104545;28;20052;-82
2021/12/16 11:43:56;;;;;;;283.95;108.25;;;7.10;48.60;;;;;;5104877;28;20047;-83
2021/12/16 11:46:27;;;;;;;294.17;114.30;;;7.30;1.00;;;;;;5107301;28;20048;-83
2021/12/16 11:49:03;;;;;;;309.00;125.22;;;7.40;1.00;;;;;;5115249;28;20473;-82
2021/12/16 11:51:34;;;;;;;323.70;125.50;;;7.60;1.00;;;;;;5114226;28;20148;-81
2021/12/16 11:54:05;;;;;;;320.13;130.88;;;7.70;1.00;;;;;;5109952;28;20526;-80
2021/12/16 11:56:41;;;;;;;309.05;127.18;;;7.80;1.00;;;;;;5104293;28;20048;-84
2021/12/16 11:59:10;;;;;;;267.77;107.93;;;7.80;1.00;;;;;;5102787;28;20115;-82
2021/12/16 12:01:40;;;;;;;293.98;114.70;;;7.80;1.00;;;;;;5102613;28;20105;-82
2021/12/16 12:04:12;;;;;;;318.63;126.10;;;7.80;1.00;;;;;;5105395;28;20418;-82
2021/12/16 12:06:43;;;;;;;325.40;131.68;;;7.90;1.00;;;;;;5103712;28;20052;-83
2021/12/16 12:09:11;;;;;;;323.52;127.00;;;8.00;1.00;;;;;;5104521;28;20043;-82
2021/12/16 12:11:43;;;;;;;311.70;124.35;;;8.10;1.00;;;;;;5104427;28;20075;-83
2021/12/16 12:14:17;;;;;;;272.10;109.88;;;8.00;1.00;;;;;;5104084;28;20651;-83
2021/12/16 12:16:49;;;;;;;273.33;110.50;;;8.00;1.00;;;;;;5109194;28;20040;-80
2021/12/16 12:19:20;;;;;;;268.67;106.32;;;7.80;1.00;;;;;;5113080;28;20078;-83
2021/12/16 12:21:54;;;;;;;251.20;102.35;;;7.80;1.00;;;;;;5103689;28;20044;-82
2021/12/16 12:24:24;;;;;;;216.23;93.22;;;8.00;1.00;;;;;;5102508;28;20052;-81
2021/12/16 12:26:54;;;;;;;213.18;93.00;;;7.80;1.00;;;;;;5097254;28;20040;-81
2021/12/16 12:29:27;;;;;;;204.43;89.05;;;7.70;1.00;;;;;;5082733;28;20040;-81
2021/12/16 12:31:57;;;;;;;211.98;86.88;;;7.80;1.00;;;;;;5079454;28;20078;-84
2021/12/16 12:34:29;;;;;;;187.63;83.57;;;7.90;1.00;;;;;;5083712;28;20045;-81
2021/12/16 12:36:58;;;;;;;184.82;82.93;;;8.00;1.00;;;;;;5080466;28;20165;-80
2021/12/16 12:39:29;;;;;;;190.23;84.55;;;7.90;1.00;;;;;;5078109;28;20044;-81
2021/12/16 12:41:58;;;;;;;198.20;86.70;;;8.00;1.00;;;;;;5078613;28;20090;-84
2021/12/16 12:44:25;;;;;;;206.85;87.40;;;8.00;1.00;;;;;;5077457;28;20036;-85
2021/12/16 12:46:54;;;;;;;196.93;89.15;;;8.00;1.00;;;;;;5092013;28;20454;-84
2021/12/16 12:49:29;;;;;;;193.60;83.40;;;8.00;1.00;;;;;;5091354;28;20045;-81
2021/12/16 12:52:04;;;;;;;189.30;82.70;;;7.90;1.00;;;;;;5092128;28;20072;-84
2021/12/16 12:54:33;;;;;;;191.93;84.60;;;7.90;1.00;;;;;;5089230;28;20060;-80
2021/12/16 12:57:20;;;;;;;179.23;80.25;;;7.90;1.00;;;;;;5089745;28;20059;-82
2021/12/16 12:59:47;;;;;;;;;;;7.90;1.00;;;;;;5092447;28;20040;-82
2021/12/16 13:02:17;;;;;;;197.00;80.95;;;7.80;1.00;;;;;;5087238;28;19927;-84
2021/12/16 13:04:50;;;;;;;192.85;84.60;;;7.80;1.00;;;;;;5086989;28;20044;-83
2021/12/16 13:07:19;;;;;;;201.02;84.53;;;7.70;1.00;;;;;;5086113;28;20051;-82
2021/12/16 13:09:50;;;;;;;201.60;86.85;;;7.60;1.00;;;;;;5089420;28;20044;-82
2021/12/16 13:12:38;;;;;;;186.45;80.82;;;7.60;1.00;;;;;;5089035;28;20041;-83
2021/12/16 13:15:32;;;;;;;204.57;81.47;;;7.50;1.00;;;;;;5089359;28;20157;-84
2021/12/16 13:24:02;;;;;;;214.13;85.97;;;7.50;1.00;;;;;;5096276;28;20052;-84
2021/12/16 13:26:37;;;;;;;223.25;93.95;;;7.40;1.00;;;;;;5097301;28;20028;-82
2021/12/16 13:29:12;;;;;;;203.15;86.20;;;7.40;1.00;;;;;;5097107;28;20040;-80
2021/12/16 13:31:52;;;;;;;183.53;80.20;;;7.30;1.00;;;;;;5096341;28;20051;-80
2021/12/16 13:34:37;;;;;;;190.45;81.35;;;7.20;1.00;;;;;;5090396;28;20281;-81
2021/12/16 13:37:20;;;;;;;199.25;85.63;;;7.20;1.00;;;;;;5088278;28;20126;-79
2021/12/16 13:39:50;;;;;;;204.70;84.22;;;7.20;1.00;;;;;;5102689;28;20047;-83
2021/12/16 13:42:18;;;;;;;197.30;84.28;;;7.20;1.00;;;;;;5084092;28;20076;-82
2021/12/16 13:44:53;;;;;;;198.10;85.93;;;7.20;1.00;;;;;;5083202;28;20045;-81
2021/12/16 13:47:41;;;;;;;214.55;92.03;;;7.10;1.00;;;;;;5082697;28;20054;-83
2021/12/16 14:02:33;;;;;;;179.38;83.60;;;6.60;1.00;;;;;;5075749;28;19923;-82
2021/12/16 14:05:15;;;;;;;174.35;83.30;;;6.40;22.40;;;;;;5078296;28;20040;-80
2021/12/16 14:07:55;;;;;;;158.82;78.35;;;6.40;68.80;;;;;;5079290;28;20052;-82
2021/12/16 14:10:34;;;;;;;164.90;78.70;;;6.50;64.80;;;;;;5081532;28;20048;-81
2021/12/16 14:16:38;;;;;;;154.57;74.45;;;6.50;95.80;;;;;;5003447;28;20065;-84
2021/12/16 14:36:36;;;;;;;251.68;122.38;;;6.20;1.00;;;;;;5078994;28;20049;-81
2021/12/16 14:39:27;;;;;;;322.02;158.55;;;6.30;1.00;;;;;;5078991;28;20543;-81
2021/12/16 14:42:16;;;;;;;369.00;177.27;;;6.30;1.00;;;;;;5079434;28;20076;-81
2021/12/16 14:50:39;;;;;;;395.05;200.35;;;6.20;99.90;;;;;;5078159;28;20411;-81
2021/12/16 14:53:20;;;;;;;378.38;198.00;;;6.00;99.90;;;;;;5076967;28;20070;-81
2021/12/16 14:55:49;;;;;;;394.23;212.95;;;5.90;1.00;;;;;;5077473;28;20612;-78
2021/12/16 14:58:20;;;;;;;407.70;205.02;;;5.90;1.00;;;;;;5078277;28;20109;-82
2021/12/16 15:00:53;;;;;;;411.42;214.60;;;5.90;1.00;;;;;;5071009;28;20044;-81
2021/12/16 15:03:23;;;;;;;389.45;204.40;;;5.80;1.00;;;;;;5077438;28;20110;-81
2021/12/16 15:05:53;;;;;;;361.42;195.52;;;5.90;1.00;;;;;;5078361;28;20048;-81
2021/12/16 15:08:28;;;;;;;384.35;210.75;;;5.80;1.00;;;;;;5077830;28;20533;-83
2021/12/16 15:10:58;;;;;;;384.02;212.30;;;5.90;1.00;;;;;;5076916;28;20591;-83
2021/12/16 15:13:32;;;;;;;433.13;240.27;;;5.80;1.00;;;;;;5079716;28;20048;-82
2021/12/16 15:16:17;;;;;;;407.77;225.80;;;5.80;1.00;;;;;;5080992;28;20040;-82
2021/12/16 15:35:56;;;;;;;331.38;170.25;;;5.50;1.00;;;;;;5067791;28;20052;-80
2021/12/16 15:44:16;;;;;;;418.50;235.57;;;5.40;99.90;;;;;;4980630;28;20065;-82
2021/12/16 15:46:44;;;;;;;431.85;241.75;;;5.50;99.90;;;;;;5040947;28;20056;-82
2021/12/16 15:49:13;;;;;;;444.08;256.30;;;5.50;99.90;;;;;;5062024;28;20532;-81
2021/12/16 15:51:41;;;;;;;404.73;225.48;;;5.60;99.90;;;;;;5041186;28;20081;-82
2021/12/16 15:54:10;;;;;;;405.00;230.82;;;5.60;99.90;;;;;;5059250;28;20124;-81
2021/12/16 15:56:40;;;;;;;415.67;233.52;;;5.70;99.90;;;;;;5061807;28;20092;-81
2021/12/16 15:59:10;;;;;;;495.08;271.95;;;5.70;99.90;;;;;;5043365;28;20083;-81